createdAt,value
2023-01-29T00:02:08.156Z,88.29
2023-01-29T00:04:35.059Z,88.07
2023-01-29T00:07:01.833Z,88.04
2023-01-29T00:09:29.191Z,87.93
2023-01-29T00:11:56.111Z,87.91
2023-01-29T00:14:22.901Z,88.20
2023-01-29T00:16:49.621Z,87.88
2023-01-29T00:19:16.588Z,87.71
2023-01-29T00:21:43.633Z,87.64
2023-01-29T00:24:10.784Z,87.70
2023-01-29T00:26:39.312Z,87.81
2023-01-29T00:29:06.448Z,87.64
2023-01-29T00:31:33.231Z,87.46
2023-01-29T00:34:00.133Z,87.50
2023-01-29T00:36:27.694Z,87.53
2023-01-29T00:38:58.881Z,87.54
2023-01-29T00:41:49.774Z,87.30
2023-01-29T00:44:35.748Z,87.26
2023-01-29T00:47:04.069Z,87.29
2023-01-29T00:49:38.299Z,87.21
2023-01-29T00:52:23.944Z,87.29
2023-01-29T00:54:51.853Z,87.18
2023-01-29T00:57:18.624Z,87.24
2023-01-29T00:59:45.496Z,87.13
2023-01-29T01:02:30.817Z,87.28
2023-01-29T01:04:58.123Z,87.28
2023-01-29T01:07:24.790Z,87.20
2023-01-29T01:10:10.328Z,87.13
2023-01-29T01:12:37.064Z,87.17
2023-01-29T01:15:04.073Z,86.89
2023-01-29T01:17:31.235Z,87.14
2023-01-29T01:19:58.034Z,87.23
2023-01-29T01:22:24.768Z,86.88
2023-01-29T01:24:51.702Z,87.12
2023-01-29T01:27:19.736Z,87.12
2023-01-29T01:29:46.913Z,87.00
2023-01-29T01:32:14.476Z,86.85
2023-01-29T01:34:41.523Z,86.99
2023-01-29T01:37:08.192Z,87.16
2023-01-29T01:39:34.976Z,87.02
2023-01-29T01:42:01.990Z,87.03
2023-01-29T01:44:53.623Z,87.04
2023-01-29T01:47:38.050Z,86.91
2023-01-29T01:50:13.399Z,87.00
2023-01-29T01:52:47.081Z,86.92
2023-01-29T01:55:17.831Z,86.94
2023-01-29T01:57:48.006Z,86.81
2023-01-29T02:00:18.836Z,86.57
2023-01-29T02:03:05.391Z,86.47
2023-01-29T02:05:53.029Z,86.54
2023-01-29T02:08:56.632Z,86.50
2023-01-29T02:11:24.363Z,86.59
2023-01-29T02:13:53.673Z,86.39
2023-01-29T02:16:22.113Z,86.41
2023-01-29T02:18:50.204Z,86.44
2023-01-29T02:21:41.956Z,86.69
2023-01-29T02:24:32.040Z,86.53
2023-01-29T02:27:20.006Z,86.68
2023-01-29T02:30:18.618Z,86.71
2023-01-29T02:32:59.588Z,86.93
2023-01-29T02:35:32.415Z,86.84
2023-01-29T02:38:21.745Z,87.09
2023-01-29T02:40:57.923Z,87.09
2023-01-29T02:43:41.845Z,87.00
2023-01-29T02:46:26.749Z,87.15
2023-01-29T02:49:24.940Z,87.23
2023-01-29T02:52:20.313Z,87.12
2023-01-29T02:55:14.080Z,87.03
2023-01-29T02:57:44.943Z,87.18
2023-01-29T03:00:18.033Z,87.24
2023-01-29T03:03:05.474Z,86.94
2023-01-29T03:05:55.042Z,86.85
2023-01-29T03:08:37.392Z,86.72
2023-01-29T03:11:07.413Z,86.82
2023-01-29T03:13:49.967Z,86.92
2023-01-29T03:16:22.986Z,86.77
2023-01-29T03:18:52.361Z,86.74
2023-01-29T03:21:48.032Z,86.84
2023-01-29T03:24:37.893Z,86.72
2023-01-29T03:27:29.490Z,86.82
2023-01-29T03:30:17.256Z,86.80
2023-01-29T03:32:46.987Z,86.75
2023-01-29T03:35:21.275Z,86.98
2023-01-29T03:37:49.409Z,86.85
2023-01-29T03:40:16.656Z,86.91
2023-01-29T03:42:53.169Z,86.87
2023-01-29T03:45:42.820Z,86.80
2023-01-29T03:48:24.909Z,86.73
2023-01-29T03:51:06.802Z,86.95
2023-01-29T03:54:06.441Z,86.82
2023-01-29T03:57:06.827Z,86.59
2023-01-29T03:59:59.821Z,86.57
2023-01-29T04:02:38.978Z,86.29
2023-01-29T04:05:12.179Z,86.24
2023-01-29T04:07:42.816Z,86.02
2023-01-29T04:10:18.757Z,85.96
2023-01-29T04:12:45.430Z,85.90
2023-01-29T04:15:15.847Z,85.58
2023-01-29T04:17:49.948Z,85.62
2023-01-29T04:20:17.186Z,85.39
2023-01-29T04:22:50.332Z,85.51
2023-01-29T04:25:26.690Z,85.22
2023-01-29T04:28:15.678Z,85.21
2023-01-29T04:30:55.235Z,85.06
2023-01-29T04:33:28.663Z,84.90
2023-01-29T04:36:22.086Z,84.90
2023-01-29T04:38:58.181Z,84.90
2023-01-29T04:41:33.150Z,84.83
2023-01-29T04:44:03.611Z,84.90
2023-01-29T04:46:46.931Z,84.74
2023-01-29T04:49:14.227Z,84.66
2023-01-29T04:51:51.447Z,84.47
2023-01-29T04:54:48.257Z,84.28
2023-01-29T04:57:25.489Z,84.40
2023-01-29T05:00:08.856Z,84.09
2023-01-29T05:02:39.414Z,84.13
2023-01-29T05:05:08.506Z,84.16
2023-01-29T05:07:38.556Z,83.92
2023-01-29T05:10:09.178Z,84.17
2023-01-29T05:12:37.968Z,83.95
2023-01-29T05:15:10.740Z,83.86
2023-01-29T05:17:37.553Z,83.89
2023-01-29T05:20:04.673Z,83.90
2023-01-29T05:22:31.753Z,83.67
2023-01-29T05:24:58.451Z,83.62
2023-01-29T05:27:53.190Z,83.59
2023-01-29T05:30:19.945Z,83.68
2023-01-29T05:32:46.710Z,83.61
2023-01-29T05:35:14.187Z,83.58
2023-01-29T05:37:41.064Z,83.39
2023-01-29T05:40:09.742Z,83.37
2023-01-29T05:42:39.049Z,83.26
2023-01-29T05:45:06.282Z,83.35
2023-01-29T05:47:32.940Z,83.35
2023-01-29T05:49:59.787Z,83.34
2023-01-29T05:52:26.560Z,83.46
2023-01-29T05:54:53.215Z,83.21
2023-01-29T05:57:20.036Z,83.00
2023-01-29T05:59:46.976Z,83.16
2023-01-29T06:02:13.620Z,83.31
2023-01-29T06:04:40.386Z,83.01
2023-01-29T06:07:07.098Z,83.18
2023-01-29T06:09:33.771Z,83.27
2023-01-29T06:12:00.547Z,83.09
2023-01-29T06:14:27.335Z,83.25
2023-01-29T06:16:54.001Z,83.39
2023-01-29T06:19:21.121Z,83.68
2023-01-29T06:21:47.799Z,83.43
2023-01-29T06:24:14.610Z,83.69
2023-01-29T06:26:41.651Z,83.62
2023-01-29T06:29:08.426Z,83.69
2023-01-29T06:31:39.519Z,83.77
2023-01-29T06:34:09.821Z,83.65
2023-01-29T06:36:36.518Z,83.87
2023-01-29T06:39:04.486Z,84.11
2023-01-29T06:41:31.266Z,84.28
2023-01-29T06:43:57.964Z,84.19
2023-01-29T06:46:24.655Z,84.22
2023-01-29T06:48:51.427Z,84.18
2023-01-29T06:51:18.208Z,84.35
2023-01-29T06:53:46.498Z,84.56
2023-01-29T06:56:13.690Z,84.52
2023-01-29T06:58:40.523Z,84.48
2023-01-29T07:01:22.136Z,84.69
2023-01-29T07:03:56.185Z,84.74
2023-01-29T07:06:31.132Z,84.83
2023-01-29T07:08:58.015Z,84.89
2023-01-29T07:11:24.814Z,84.95
2023-01-29T07:13:51.542Z,84.65
2023-01-29T07:16:19.500Z,85.01
2023-01-29T07:18:46.624Z,85.35
2023-01-29T07:21:13.360Z,85.28
2023-01-29T07:23:40.127Z,85.24
2023-01-29T07:26:07.283Z,85.19
2023-01-29T07:28:38.202Z,85.58
2023-01-29T07:31:05.871Z,85.61
2023-01-29T07:33:33.260Z,85.71
2023-01-29T07:36:00.024Z,85.61
2023-01-29T07:38:27.028Z,85.92
2023-01-29T07:40:53.991Z,85.97
2023-01-29T07:43:21.001Z,86.21
2023-01-29T07:45:48.054Z,86.39
2023-01-29T07:48:14.757Z,86.21
2023-01-29T07:50:41.569Z,86.24
2023-01-29T07:53:15.354Z,86.54
2023-01-29T07:55:45.177Z,86.76
2023-01-29T07:58:11.952Z,86.60
2023-01-29T08:00:39.489Z,86.91
2023-01-29T08:03:09.745Z,86.68
2023-01-29T08:05:36.693Z,86.88
2023-01-29T08:08:07.346Z,87.06
2023-01-29T08:10:35.926Z,87.12
2023-01-29T08:13:03.765Z,87.17
2023-01-29T08:15:31.299Z,87.52
2023-01-29T08:17:58.618Z,87.16
2023-01-29T08:20:26.304Z,87.10
2023-01-29T08:23:04.630Z,87.18
2023-01-29T08:25:32.053Z,87.39
2023-01-29T08:27:59.800Z,87.40
2023-01-29T08:30:29.156Z,87.30
2023-01-29T08:32:55.891Z,87.42
2023-01-29T08:35:22.809Z,87.29
2023-01-29T08:37:58.525Z,87.48
2023-01-29T08:40:26.056Z,87.46
2023-01-29T08:42:52.782Z,87.50
2023-01-29T08:45:19.675Z,87.46
2023-01-29T08:47:48.033Z,87.74
2023-01-29T08:50:16.261Z,87.33
2023-01-29T08:52:43.939Z,87.70
2023-01-29T08:55:11.693Z,87.56
2023-01-29T08:57:39.536Z,87.42
2023-01-29T09:00:09.007Z,87.78
2023-01-29T09:02:35.855Z,87.45
2023-01-29T09:05:02.522Z,87.74
2023-01-29T09:07:29.844Z,87.47
2023-01-29T09:09:56.694Z,87.68
2023-01-29T09:12:23.410Z,87.55
2023-01-29T09:14:50.423Z,87.72
2023-01-29T09:17:17.188Z,87.68
2023-01-29T09:19:43.972Z,87.67
2023-01-29T09:22:11.979Z,87.97
2023-01-29T09:24:38.896Z,87.91
2023-01-29T09:27:06.323Z,87.66
2023-01-29T09:29:35.734Z,87.68
2023-01-29T09:32:04.866Z,87.95
2023-01-29T09:34:31.571Z,88.01
2023-01-29T09:36:58.626Z,87.67
2023-01-29T09:39:25.400Z,87.70
2023-01-29T09:42:28.482Z,87.81
2023-01-29T09:45:17.696Z,87.77
2023-01-29T09:47:45.095Z,87.92
2023-01-29T09:50:43.673Z,87.84
2023-01-29T09:53:29.091Z,87.84
2023-01-29T09:56:18.185Z,88.04
2023-01-29T09:58:45.191Z,88.04
2023-01-29T10:01:33.927Z,87.79
2023-01-29T10:04:45.565Z,87.78
2023-01-29T10:07:42.897Z,87.76
2023-01-29T10:10:27.261Z,88.05
2023-01-29T10:13:01.624Z,88.05
2023-01-29T10:15:43.359Z,88.05
2023-01-29T10:18:25.407Z,88.03
2023-01-29T10:21:24.523Z,87.97
2023-01-29T10:23:58.057Z,88.08
2023-01-29T10:26:28.648Z,87.89
2023-01-29T10:29:00.659Z,87.98
2023-01-29T10:31:33.516Z,87.97
2023-01-29T10:34:02.953Z,87.92
2023-01-29T10:36:45.924Z,87.78
2023-01-29T10:39:17.714Z,87.83
2023-01-29T10:42:19.912Z,88.06
2023-01-29T10:45:09.589Z,87.85
2023-01-29T10:47:57.604Z,88.00
2023-01-29T10:50:24.347Z,87.99
2023-01-29T10:53:15.831Z,88.08
2023-01-29T10:55:57.494Z,87.85
2023-01-29T10:58:36.350Z,87.72
2023-01-29T11:01:03.189Z,87.80
2023-01-29T11:03:32.146Z,87.83
2023-01-29T11:06:04.572Z,87.79
2023-01-29T11:08:56.790Z,88.03
2023-01-29T11:11:41.306Z,87.98
2023-01-29T11:14:15.057Z,87.87
2023-01-29T11:16:47.745Z,87.71
2023-01-29T11:19:15.494Z,88.18
2023-01-29T11:21:59.765Z,88.01
2023-01-29T11:24:27.704Z,88.22
2023-01-29T11:27:14.985Z,87.96
2023-01-29T11:29:48.346Z,87.86
2023-01-29T11:32:26.383Z,88.30
2023-01-29T11:35:00.569Z,88.11
2023-01-29T11:37:38.658Z,88.07
2023-01-29T11:40:24.323Z,88.24
2023-01-29T11:42:53.991Z,88.37
2023-01-29T11:45:20.647Z,88.26
2023-01-29T11:47:54.001Z,88.25
2023-01-29T11:50:25.290Z,88.28
2023-01-29T11:52:52.175Z,88.33
2023-01-29T11:55:31.191Z,88.49
2023-01-29T11:58:18.514Z,88.18
2023-01-29T12:00:52.219Z,88.07
2023-01-29T12:03:40.159Z,88.10
2023-01-29T12:06:23.598Z,88.28
2023-01-29T12:09:01.493Z,87.85
2023-01-29T12:11:33.887Z,87.91
2023-01-29T12:14:06.596Z,87.90
2023-01-29T12:17:10.793Z,87.94
2023-01-29T12:19:55.325Z,87.77
2023-01-29T12:22:25.432Z,87.22
2023-01-29T12:25:04.623Z,87.50
2023-01-29T12:28:04.360Z,87.39
2023-01-29T12:30:46.253Z,87.21
2023-01-29T12:33:32.356Z,87.14
2023-01-29T12:36:17.723Z,87.17
2023-01-29T12:38:45.755Z,87.25
2023-01-29T12:41:36.662Z,86.86
2023-01-29T12:44:12.014Z,87.14
2023-01-29T12:46:43.468Z,86.65
2023-01-29T12:49:17.028Z,86.73
2023-01-29T12:51:57.395Z,86.63
2023-01-29T12:54:45.171Z,86.15
2023-01-29T12:57:34.781Z,86.42
2023-01-29T13:00:12.285Z,85.87
2023-01-29T13:02:50.072Z,86.02
2023-01-29T13:05:31.301Z,85.84
2023-01-29T13:08:06.104Z,85.20
2023-01-29T13:10:43.227Z,85.23
2023-01-29T13:14:07.861Z,84.76
2023-01-29T13:16:41.900Z,84.59
2023-01-29T13:19:29.695Z,84.45
2023-01-29T13:21:59.914Z,84.67
2023-01-29T13:24:38.514Z,84.60
2023-01-29T13:27:06.186Z,84.58
2023-01-29T13:29:33.923Z,84.08
2023-01-29T13:32:03.636Z,84.24
2023-01-29T13:34:33.838Z,84.32
2023-01-29T13:37:11.315Z,83.96
2023-01-29T13:39:48.865Z,84.04
2023-01-29T13:42:25.195Z,83.90
2023-01-29T13:44:56.493Z,83.66
2023-01-29T13:47:32.322Z,83.64
2023-01-29T13:50:08.413Z,83.77
2023-01-29T13:53:02.327Z,83.56
2023-01-29T13:55:35.214Z,83.51
2023-01-29T13:58:18.702Z,82.86
2023-01-29T14:00:45.534Z,83.12
2023-01-29T14:03:12.177Z,82.51
2023-01-29T14:05:42.967Z,82.67
2023-01-29T14:08:09.711Z,82.54
2023-01-29T14:10:39.906Z,82.43
2023-01-29T14:13:18.758Z,81.93
2023-01-29T14:16:06.533Z,81.82
2023-01-29T14:18:36.126Z,81.72
2023-01-29T14:21:05.699Z,81.60
2023-01-29T14:23:49.744Z,81.58
2023-01-29T14:26:47.484Z,81.46
2023-01-29T14:29:34.969Z,81.21
2023-01-29T14:32:07.723Z,80.77
2023-01-29T14:34:41.971Z,80.78
2023-01-29T14:37:22.463Z,80.24
2023-01-29T14:39:52.175Z,80.48
2023-01-29T14:42:22.739Z,79.88
2023-01-29T14:44:59.659Z,80.18
2023-01-29T14:47:38.412Z,79.57
2023-01-29T14:50:30.161Z,79.63
2023-01-29T14:53:15.673Z,79.64
2023-01-29T14:55:44.346Z,79.47
2023-01-29T14:58:19.030Z,79.33
2023-01-29T15:00:51.822Z,79.70
2023-01-29T15:03:46.324Z,79.43
2023-01-29T15:06:20.460Z,79.50
2023-01-29T15:08:55.841Z,79.96
2023-01-29T15:12:14.487Z,79.83
2023-01-29T15:14:57.026Z,79.90
2023-01-29T15:17:33.234Z,80.07
2023-01-29T15:20:00.014Z,79.99
2023-01-29T15:22:29.103Z,80.22
2023-01-29T15:25:07.767Z,80.09
2023-01-29T15:27:34.954Z,79.84
2023-01-29T15:30:06.091Z,80.00
2023-01-29T15:32:39.376Z,79.66
2023-01-29T15:35:10.294Z,79.66
2023-01-29T15:37:37.767Z,79.38
2023-01-29T15:40:12.426Z,79.41
2023-01-29T15:42:46.733Z,79.10
2023-01-29T15:45:32.118Z,79.00
2023-01-29T15:48:03.825Z,79.17
2023-01-29T15:50:31.628Z,78.71
2023-01-29T15:53:03.991Z,78.65
2023-01-29T15:55:31.915Z,78.68
2023-01-29T15:58:00.272Z,78.60
2023-01-29T16:00:29.891Z,78.29
2023-01-29T16:02:59.207Z,78.25
2023-01-29T16:05:29.536Z,78.26
2023-01-29T16:07:57.746Z,77.84
2023-01-29T16:10:30.577Z,78.24
2023-01-29T16:12:57.482Z,77.98
2023-01-29T16:15:31.798Z,77.93
2023-01-29T16:18:00.347Z,77.99
2023-01-29T16:20:38.105Z,77.95
2023-01-29T16:23:06.422Z,77.92
2023-01-29T16:25:37.245Z,77.75
2023-01-29T16:28:07.486Z,77.89
2023-01-29T16:30:34.259Z,78.06
2023-01-29T16:33:06.106Z,78.15
2023-01-29T16:35:34.286Z,78.19
2023-01-29T16:38:07.940Z,77.88
2023-01-29T16:40:38.487Z,77.76
2023-01-29T16:43:17.167Z,77.83
2023-01-29T16:46:26.500Z,78.16
2023-01-29T16:48:54.058Z,78.02
2023-01-29T16:51:30.385Z,77.71
2023-01-29T16:54:06.489Z,77.73
2023-01-29T16:56:34.829Z,77.59
2023-01-29T16:59:04.591Z,77.57
2023-01-29T17:01:32.846Z,77.53
2023-01-29T17:04:13.927Z,77.66
2023-01-29T17:06:44.527Z,77.33
2023-01-29T17:09:38.357Z,77.80
2023-01-29T17:12:08.151Z,77.49
2023-01-29T17:14:36.594Z,77.60
2023-01-29T17:17:06.483Z,77.85
2023-01-29T17:19:33.630Z,77.51
2023-01-29T17:22:04.707Z,77.92
2023-01-29T17:24:31.880Z,77.74
2023-01-29T17:27:00.947Z,77.86
2023-01-29T17:29:31.251Z,78.08
2023-01-29T17:32:00.490Z,77.95
2023-01-29T17:34:27.383Z,78.27
2023-01-29T17:36:54.067Z,78.27
2023-01-29T17:39:24.317Z,78.51
2023-01-29T17:41:56.231Z,78.31
2023-01-29T17:44:23.211Z,78.13
2023-01-29T17:46:50.281Z,78.37
2023-01-29T17:49:25.904Z,78.59
2023-01-29T17:51:54.006Z,78.42
2023-01-29T17:54:21.872Z,78.87
2023-01-29T17:56:49.155Z,79.07
2023-01-29T17:59:24.330Z,78.85
2023-01-29T18:01:51.455Z,79.07
2023-01-29T18:04:18.295Z,78.95
2023-01-29T18:06:47.578Z,79.07
2023-01-29T18:09:16.068Z,79.63
2023-01-29T18:11:43.479Z,79.48
2023-01-29T18:14:14.222Z,79.23
2023-01-29T18:16:43.216Z,79.78
2023-01-29T18:19:28.577Z,79.58
2023-01-29T18:21:55.403Z,79.58
2023-01-29T18:24:22.133Z,80.05
2023-01-29T18:26:49.801Z,80.06
2023-01-29T18:29:16.582Z,80.15
2023-01-29T18:31:43.391Z,80.15
2023-01-29T18:34:10.402Z,80.07
2023-01-29T18:36:37.243Z,80.38
2023-01-29T18:39:04.179Z,80.55
2023-01-29T18:41:30.971Z,80.81
2023-01-29T18:43:57.709Z,80.51
2023-01-29T18:46:24.419Z,80.67
2023-01-29T18:48:51.510Z,80.96
2023-01-29T18:51:24.158Z,80.91
2023-01-29T18:53:51.909Z,81.20
2023-01-29T18:56:19.125Z,81.34
2023-01-29T18:58:52.151Z,81.33
2023-01-29T19:01:22.580Z,81.43
2023-01-29T19:03:49.360Z,81.85
2023-01-29T19:06:16.077Z,82.15
2023-01-29T19:08:44.074Z,81.93
2023-01-29T19:11:12.656Z,82.24
2023-01-29T19:13:40.548Z,82.45
2023-01-29T19:16:09.646Z,82.55
2023-01-29T19:18:36.652Z,82.93
2023-01-29T19:21:08.250Z,83.28
2023-01-29T19:23:35.256Z,83.10
2023-01-29T19:26:02.332Z,83.64
2023-01-29T19:28:29.166Z,83.57
2023-01-29T19:31:00.366Z,84.28
2023-01-29T19:33:27.885Z,84.23
2023-01-29T19:36:02.747Z,84.72
2023-01-29T19:38:33.477Z,84.78
2023-01-29T19:41:00.634Z,85.39
2023-01-29T19:43:33.452Z,85.54
2023-01-29T19:46:00.677Z,85.68
2023-01-29T19:48:28.163Z,85.90
2023-01-29T19:50:57.412Z,86.18
2023-01-29T19:53:24.953Z,86.54
2023-01-29T19:56:05.568Z,86.98
2023-01-29T19:58:33.071Z,87.17
2023-01-29T20:01:02.589Z,87.17
2023-01-29T20:03:30.257Z,87.23
2023-01-29T20:06:03.000Z,87.54
2023-01-29T20:08:37.808Z,87.75
2023-01-29T20:11:05.695Z,87.90
2023-01-29T20:13:33.459Z,87.88
2023-01-29T20:16:05.686Z,87.64
2023-01-29T20:19:32.162Z,87.75
2023-01-29T20:21:59.200Z,87.20
2023-01-29T20:24:26.538Z,87.26
2023-01-29T20:26:53.210Z,87.02
2023-01-29T20:29:20.120Z,86.85
2023-01-29T20:31:46.902Z,86.54
2023-01-29T20:34:13.567Z,86.29
2023-01-29T20:36:40.608Z,86.55
2023-01-29T20:39:07.312Z,86.37
2023-01-29T20:41:34.048Z,85.93
2023-01-29T20:44:01.176Z,86.11
2023-01-29T20:46:28.197Z,85.91
2023-01-29T20:48:55.855Z,85.94
2023-01-29T20:51:22.706Z,85.41
2023-01-29T20:53:49.408Z,85.51
2023-01-29T20:56:17.633Z,85.06
2023-01-29T20:58:47.133Z,84.91
2023-01-29T21:01:19.293Z,84.79
2023-01-29T21:03:47.228Z,84.74
2023-01-29T21:06:14.709Z,84.69
2023-01-29T21:08:42.096Z,84.32
2023-01-29T21:11:10.273Z,83.91
2023-01-29T21:13:37.352Z,83.84
2023-01-29T21:16:04.674Z,83.31
2023-01-29T21:18:32.552Z,83.50
2023-01-29T21:20:59.271Z,82.95
2023-01-29T21:23:25.968Z,82.85
2023-01-29T21:25:52.741Z,82.84
2023-01-29T21:28:19.398Z,82.63
2023-01-29T21:30:46.528Z,82.12
2023-01-29T21:33:13.561Z,82.21
2023-01-29T21:35:40.300Z,81.95
2023-01-29T21:38:06.972Z,81.34
2023-01-29T21:40:33.949Z,81.46
2023-01-29T21:43:12.824Z,80.48
2023-01-29T21:45:40.695Z,80.13
2023-01-29T21:48:08.200Z,79.30
2023-01-29T21:50:35.461Z,78.73
2023-01-29T21:53:02.896Z,78.35
2023-01-29T21:55:30.149Z,77.95
2023-01-29T21:57:56.845Z,77.49
2023-01-29T22:00:23.872Z,77.11
2023-01-29T22:02:51.394Z,76.75
2023-01-29T22:05:20.165Z,76.61
2023-01-29T22:07:48.741Z,76.21
2023-01-29T22:10:19.905Z,75.77
2023-01-29T22:12:47.544Z,75.57
2023-01-29T22:15:15.467Z,75.32
2023-01-29T22:17:42.482Z,75.27
2023-01-29T22:20:13.672Z,74.88
2023-01-29T22:22:40.694Z,74.87
2023-01-29T22:25:07.887Z,75.00
2023-01-29T22:27:34.812Z,74.57
2023-01-29T22:30:03.699Z,74.72
2023-01-29T22:32:32.404Z,74.48
2023-01-29T22:34:59.191Z,74.03
2023-01-29T22:37:25.998Z,74.14
2023-01-29T22:39:52.780Z,73.74
2023-01-29T22:42:20.790Z,73.72
2023-01-29T22:44:48.748Z,73.47
2023-01-29T22:47:15.903Z,73.59
2023-01-29T22:49:44.678Z,73.42
2023-01-29T22:52:11.773Z,73.11
2023-01-29T22:54:43.709Z,72.90
2023-01-29T22:57:12.288Z,72.62
2023-01-29T22:59:39.433Z,72.70
2023-01-29T23:02:06.861Z,72.79
2023-01-29T23:04:34.024Z,72.54
2023-01-29T23:07:00.797Z,72.38
2023-01-29T23:09:27.657Z,72.40
2023-01-29T23:11:54.438Z,72.34
2023-01-29T23:14:21.548Z,72.26
2023-01-29T23:16:48.302Z,72.32
2023-01-29T23:19:15.011Z,72.19
2023-01-29T23:21:41.838Z,72.39
2023-01-29T23:24:09.330Z,72.49
2023-01-29T23:26:54.438Z,72.20
2023-01-29T23:29:21.419Z,72.31
2023-01-29T23:31:48.355Z,72.24
2023-01-29T23:34:15.644Z,71.96
2023-01-29T23:36:42.797Z,72.02
2023-01-29T23:39:10.018Z,71.73
2023-01-29T23:41:37.266Z,71.79
2023-01-29T23:44:04.466Z,71.34
2023-01-29T23:46:31.356Z,71.25
2023-01-29T23:48:58.387Z,71.20
2023-01-29T23:51:25.603Z,71.05
2023-01-29T23:53:52.300Z,70.85
2023-01-29T23:56:19.354Z,70.83
2023-01-29T23:58:46.407Z,70.45
